Time;durP1;ratioP1;P1;durP2;ratioP2;P2;SDS_P1;SDS_P2;PMS_P1;PMS_P2;Temp;Humidity;BMP_temperature;BMP_pressure;BME280_temperature;BME280_humidity;BME280_pressure;Samples;Min_cycle;Max_cycle;Signal;HPM_P1;HPM_P2
2023/12/12 00:02:22;;;;;;;18.83;2.38;;;;;8.50;95634.00;;;;8335548;28;20225;-73
2023/12/12 00:06:25;;;;;;;12.82;2.97;;;;;8.50;95636.00;;;;8335372;28;20663;-73
2023/12/12 00:10:28;;;;;;;11.55;2.20;;;;;8.50;95629.00;;;;8335012;28;20600;-73
2023/12/12 00:14:32;;;;;;;19.92;3.03;;;;;8.50;95633.00;;;;8334760;28;20228;-73
2023/12/12 00:18:36;;;;;;;12.40;2.67;;;;;8.50;95642.00;;;;8333749;28;20237;-73
2023/12/12 00:22:39;;;;;;;15.77;4.05;;;;;8.50;95652.00;;;;8333699;28;20247;-73
2023/12/12 00:26:42;;;;;;;17.42;2.83;;;;;8.50;95648.00;;;;8334360;28;20190;-73
2023/12/12 00:30:47;;;;;;;10.45;2.20;;;;;8.50;95653.00;;;;8333896;28;20197;-73
2023/12/12 00:34:51;;;;;;;15.80;2.23;;;;;8.40;95644.00;;;;8333885;28;20558;-73
2023/12/12 00:38:54;;;;;;;11.32;2.83;;;;;8.40;95651.00;;;;8333912;28;20531;-73
2023/12/12 00:42:57;;;;;;;18.60;2.78;;;;;8.30;95662.00;;;;8333818;28;20280;-73
2023/12/12 00:47:02;;;;;;;16.50;3.45;;;;;8.30;95660.00;;;;8333781;28;20293;-73
2023/12/12 00:51:08;;;;;;;13.10;2.45;;;;;8.30;95660.00;;;;8332554;28;20197;-73
2023/12/12 00:55:11;;;;;;;20.10;2.80;;;;;8.30;95666.00;;;;8333631;28;20217;-73
2023/12/12 00:59:14;;;;;;;12.15;2.50;;;;;8.30;95669.00;;;;8332628;28;20197;-73
2023/12/12 01:03:19;;;;;;;14.33;2.93;;;;;8.30;95694.00;;;;8333163;28;20320;-73
2023/12/12 01:07:22;;;;;;;12.43;2.63;;;;;8.20;95683.00;;;;8332535;28;20205;-73
2023/12/12 01:11:26;;;;;;;13.13;2.53;;;;;8.20;95686.00;;;;8333444;28;20239;-73
2023/12/12 01:15:29;;;;;;;11.63;3.10;;;;;8.20;95682.00;;;;8331806;28;20218;-73
2023/12/12 01:19:33;;;;;;;19.00;2.73;;;;;8.10;95689.00;;;;8313626;28;20230;-73
2023/12/12 01:23:50;;;;;;;10.60;2.25;;;;;8.00;95684.00;;;;8300438;28;20600;-73
2023/12/12 01:27:53;;;;;;;9.50;3.00;;;;;8.00;95701.00;;;;8296566;28;20205;-73
2023/12/12 01:31:56;;;;;;;13.90;3.00;;;;;8.10;95707.00;;;;8299380;28;20213;-73
2023/12/12 01:36:14;;;;;;;15.43;2.20;;;;;8.10;95700.00;;;;8298644;28;20323;-73
2023/12/12 01:40:17;;;;;;;22.35;3.00;;;;;8.10;95710.00;;;;8300829;28;20274;-73
2023/12/12 01:44:20;;;;;;;21.83;3.27;;;;;8.20;95710.00;;;;8298509;28;20193;-73
2023/12/12 01:48:24;;;;;;;12.93;2.22;;;;;8.10;95703.00;;;;8297952;28;20293;-73
2023/12/12 01:52:49;;;;;;;10.50;2.40;;;;;8.10;95699.00;;;;8297635;28;20264;-73
2023/12/12 01:56:54;;;;;;;11.10;2.40;;;;;8.10;95702.00;;;;8299608;28;20663;-73
2023/12/12 02:00:57;;;;;;;12.53;2.80;;;;;8.20;95708.00;;;;8299127;28;20236;-73
2023/12/12 02:05:01;;;;;;;18.73;2.90;;;;;8.20;95701.00;;;;8330854;28;20228;-73
2023/12/12 02:09:05;;;;;;;19.90;2.83;;;;;8.20;95698.00;;;;8330889;28;20194;-73
2023/12/12 02:13:08;;;;;;;10.05;2.42;;;;;8.20;95705.00;;;;8331965;28;20687;-73
2023/12/12 02:21:35;;;;;;;12.75;2.80;;;;;8.20;95682.00;;;;8331775;28;20181;-73
2023/12/12 02:25:39;;;;;;;21.02;3.25;;;;;8.20;95684.00;;;;8330668;28;20284;-73
2023/12/12 02:29:42;;;;;;;20.63;3.40;;;;;8.20;95672.00;;;;8331225;28;20247;-73
2023/12/12 02:33:45;;;;;;;18.42;2.88;;;;;8.30;95679.00;;;;8329782;28;20303;-73
2023/12/12 02:37:50;;;;;;;7.27;2.40;;;;;8.30;95677.00;;;;8330648;28;20193;-73
2023/12/12 02:41:53;;;;;;;18.83;2.43;;;;;8.20;95674.00;;;;8330360;28;20296;-73
2023/12/12 02:45:56;;;;;;;16.67;2.88;;;;;8.30;95675.00;;;;8329280;28;20201;-73
2023/12/12 02:49:59;;;;;;;17.58;3.00;;;;;8.30;95675.00;;;;8329658;28;20197;-73
2023/12/12 02:54:04;;;;;;;11.30;2.50;;;;;8.30;95681.00;;;;8330782;28;20217;-73
2023/12/12 02:58:07;;;;;;;12.85;2.20;;;;;8.30;95684.00;;;;8330768;28;20232;-73
2023/12/12 03:02:11;;;;;;;16.73;3.47;;;;;8.30;95671.00;;;;8382329;22;20329;-73
2023/12/12 03:06:14;;;;;;;13.33;3.07;;;;;8.30;95675.00;;;;8299797;28;20209;-73
2023/12/12 03:10:18;;;;;;;11.32;3.50;;;;;8.30;95680.00;;;;8305210;28;20638;-73
2023/12/12 03:14:28;;;;;;;20.63;4.43;;;;;8.20;95687.00;;;;8300896;28;20233;-73
2023/12/12 03:18:31;;;;;;;15.07;2.80;;;;;8.20;95681.00;;;;8311154;28;21219;-73
2023/12/12 03:22:34;;;;;;;10.17;2.73;;;;;8.10;95671.00;;;;8310524;28;20308;-73
2023/12/12 03:26:38;;;;;;;9.50;2.15;;;;;8.00;95662.00;;;;8309481;28;20204;-73
2023/12/12 03:30:41;;;;;;;19.23;2.47;;;;;7.90;95660.00;;;;8303302;28;20301;-73
2023/12/12 03:34:44;;;;;;;16.33;2.90;;;;;7.80;95660.00;;;;8312429;28;20850;-73
2023/12/12 03:38:48;;;;;;;16.60;2.53;;;;;7.60;95647.00;;;;8310808;28;20666;-72
2023/12/12 03:42:52;;;;;;;15.13;2.70;;;;;7.60;95658.00;;;;8310087;28;20285;-72
2023/12/12 03:46:55;;;;;;;12.00;2.77;;;;;7.50;95656.00;;;;8308541;28;20197;-72
2023/12/12 03:50:59;;;;;;;15.53;2.73;;;;;7.50;95655.00;;;;8309683;28;20281;-73
2023/12/12 03:55:02;;;;;;;15.93;2.85;;;;;7.40;95659.00;;;;8302110;28;20827;-73
2023/12/12 03:59:06;;;;;;;17.47;2.87;;;;;7.30;95663.00;;;;8299127;28;20532;-73
2023/12/12 04:03:09;;;;;;;11.60;2.47;;;;;7.20;95674.00;;;;8284079;28;20241;-73
2023/12/12 04:07:12;;;;;;;8.47;2.50;;;;;7.10;95684.00;;;;8266657;28;20209;-73
2023/12/12 04:11:16;;;;;;;9.40;2.63;;;;;7.10;95683.00;;;;8256921;28;20204;-73
2023/12/12 04:15:20;;;;;;;19.23;2.70;;;;;7.00;95685.00;;;;8261824;28;20227;-73
2023/12/12 04:19:23;;;;;;;12.50;3.43;;;;;6.90;95685.00;;;;8261761;28;20209;-73
2023/12/12 04:23:27;;;;;;;15.73;2.93;;;;;6.90;95688.00;;;;8263615;28;20660;-73
2023/12/12 04:27:30;;;;;;;16.23;3.27;;;;;6.90;95680.00;;;;8266595;28;20931;-73
2023/12/12 04:31:35;;;;;;;21.50;4.27;;;;;6.80;95682.00;;;;8268428;28;20213;-73
2023/12/12 04:35:39;;;;;;;12.47;3.13;;;;;6.70;95684.00;;;;8270221;28;20742;-72
2023/12/12 04:39:42;;;;;;;17.33;3.40;;;;;6.60;95679.00;;;;8270020;28;20202;-73
2023/12/12 04:43:45;;;;;;;8.53;2.70;;;;;6.50;95673.00;;;;8272771;28;20211;-72
2023/12/12 04:47:50;;;;;;;16.93;2.80;;;;;6.40;95669.00;;;;8271042;28;20198;-72
2023/12/12 04:51:53;;;;;;;17.20;2.70;;;;;6.30;95674.00;;;;8270258;28;20293;-72
2023/12/12 04:55:56;;;;;;;20.40;3.33;;;;;6.30;95666.00;;;;8260013;28;20236;-72
2023/12/12 05:00:00;;;;;;;12.00;2.93;;;;;6.20;95662.00;;;;8263760;28;20214;-72
2023/12/12 05:04:04;;;;;;;16.90;4.10;;;;;6.20;95662.00;;;;8249917;28;20301;-72
2023/12/12 05:08:08;;;;;;;22.87;2.90;;;;;6.20;95656.00;;;;8238609;28;20231;-72
2023/12/12 05:12:11;;;;;;;19.63;3.00;;;;;6.10;95664.00;;;;8243713;28;20304;-72
2023/12/12 05:16:14;;;;;;;17.70;3.20;;;;;6.20;95666.00;;;;8245203;28;20234;-73
2023/12/12 05:20:34;;;;;;;11.07;2.60;;;;;6.30;95673.00;;;;8244177;28;20290;-72
2023/12/12 05:24:37;;;;;;;18.40;2.87;;;;;6.40;95670.00;;;;8249226;28;20199;-72
2023/12/12 05:28:40;;;;;;;19.53;3.60;;;;;6.50;95667.00;;;;8242587;28;20210;-70
2023/12/12 05:32:43;;;;;;;14.03;2.83;;;;;6.60;95667.00;;;;8237976;28;20333;-72
2023/12/12 05:36:48;;;;;;;10.83;3.07;;;;;6.60;95660.00;;;;8237838;28;20232;-72
2023/12/12 05:40:51;;;;;;;11.30;3.13;;;;;6.70;95662.00;;;;8247094;28;20630;-72
2023/12/12 05:44:55;;;;;;;14.53;2.83;;;;;6.70;95664.00;;;;8239013;28;20198;-72
2023/12/12 05:48:59;;;;;;;8.77;3.17;;;;;6.70;95661.00;;;;8241701;28;20310;-72
2023/12/12 05:53:04;;;;;;;14.07;2.77;;;;;6.70;95662.00;;;;8241056;28;20286;-73
2023/12/12 05:57:07;;;;;;;13.90;2.57;;;;;6.70;95652.00;;;;8250600;28;20627;-72
2023/12/12 06:01:10;;;;;;;18.23;2.63;;;;;6.80;95665.00;;;;8239614;28;20205;-72
2023/12/12 06:05:13;;;;;;;6.93;2.27;;;;;6.70;95665.00;;;;8269845;28;20234;-72
2023/12/12 06:09:18;;;;;;;15.80;2.60;;;;;6.60;95664.00;;;;8279868;28;20493;-73
2023/12/12 06:13:22;;;;;;;16.00;2.83;;;;;6.60;95674.00;;;;8277258;28;20205;-72
2023/12/12 06:17:25;;;;;;;14.73;3.03;;;;;6.60;95676.00;;;;8275159;28;20222;-72
2023/12/12 06:21:28;;;;;;;11.00;2.60;;;;;6.70;95681.00;;;;8278393;28;20233;-72
2023/12/12 06:25:33;;;;;;;13.07;3.37;;;;;6.80;95681.00;;;;8274515;28;20198;-71
2023/12/12 06:29:36;;;;;;;10.63;2.47;;;;;6.90;95677.00;;;;8283041;28;20201;-72
2023/12/12 06:33:39;;;;;;;10.77;2.60;;;;;6.90;95673.00;;;;8268954;28;20202;-73
2023/12/12 06:37:43;;;;;;;11.03;2.30;;;;;6.90;95674.00;;;;8278941;28;20287;-72
2023/12/12 06:41:48;;;;;;;9.13;2.42;;;;;6.90;95672.00;;;;8286082;28;20252;-72
2023/12/12 06:45:51;;;;;;;11.20;2.70;;;;;7.00;95673.00;;;;8281864;28;20194;-73
2023/12/12 06:49:54;;;;;;;18.10;3.03;;;;;6.90;95667.00;;;;8285471;28;20212;-73
2023/12/12 06:53:58;;;;;;;15.43;2.73;;;;;6.90;95664.00;;;;8282497;28;20655;-72
2023/12/12 06:58:03;;;;;;;14.07;2.67;;;;;6.90;95656.00;;;;8286166;28;20230;-73
2023/12/12 07:02:10;;;;;;;13.03;2.80;;;;;6.80;95650.00;;;;8276658;28;20618;-72
2023/12/12 07:06:13;;;;;;;11.17;2.60;;;;;6.70;95657.00;;;;8277850;28;20233;-73
2023/12/12 07:10:17;;;;;;;11.97;2.93;;;;;6.50;95646.00;;;;8274611;28;20206;-73
2023/12/12 07:14:21;;;;;;;15.13;3.37;;;;;6.30;95651.00;;;;8283758;28;20193;-72
2023/12/12 07:18:24;;;;;;;9.60;3.43;;;;;6.10;95665.00;;;;8285913;28;20304;-73
2023/12/12 07:22:28;;;;;;;12.70;2.90;;;;;6.10;95660.00;;;;8285349;28;20221;-72
2023/12/12 07:26:31;;;;;;;10.63;3.00;;;;;6.00;95661.00;;;;8287502;28;20816;-73
2023/12/12 07:30:35;;;;;;;9.40;2.93;;;;;5.90;95664.00;;;;8282073;28;20203;-72
2023/12/12 07:34:39;;;;;;;5.73;2.70;;;;;5.70;95661.00;;;;8274501;28;20211;-72
2023/12/12 07:38:42;;;;;;;7.83;3.00;;;;;5.60;95641.00;;;;8288454;28;20233;-72
2023/12/12 07:42:45;;;;;;;5.50;3.33;;;;;5.40;95648.00;;;;8283242;28;20204;-72
2023/12/12 07:46:50;;;;;;;8.30;3.27;;;;;5.20;95644.00;;;;8281128;28;20544;-72
2023/12/12 07:50:54;;;;;;;13.20;3.30;;;;;5.10;95644.00;;;;8288688;28;20204;-72
2023/12/12 07:54:57;;;;;;;10.77;3.50;;;;;5.10;95646.00;;;;8273266;28;20963;-72
2023/12/12 07:59:00;;;;;;;8.27;3.40;;;;;5.00;95639.00;;;;8272777;28;20225;-72
2023/12/12 08:03:05;;;;;;;12.47;3.97;;;;;4.90;95636.00;;;;8283760;28;20646;-72
2023/12/12 08:07:08;;;;;;;14.77;4.47;;;;;4.80;95628.00;;;;8284271;28;20206;-73
2023/12/12 08:11:14;;;;;;;12.77;5.43;;;;;4.80;95635.00;;;;8278309;28;20202;-72
2023/12/12 08:15:19;;;;;;;13.10;4.90;;;;;4.70;95628.00;;;;8260969;28;20214;-73
2023/12/12 08:19:24;;;;;;;11.87;4.30;;;;;4.80;95631.00;;;;8261280;28;20219;-73
2023/12/12 08:23:27;;;;;;;13.63;4.13;;;;;4.80;95637.00;;;;8265691;28;20199;-72
2023/12/12 08:27:34;;;;;;;11.10;4.10;;;;;5.00;95644.00;;;;8261630;28;20219;-72
2023/12/12 08:31:38;;;;;;;10.87;5.00;;;;;5.20;95648.00;;;;8274794;28;20208;-71
2023/12/12 08:35:43;;;;;;;11.60;5.33;;;;;5.30;95654.00;;;;8260040;28;20198;-72
2023/12/12 08:39:46;;;;;;;20.70;5.93;;;;;5.60;95642.00;;;;8278267;28;20206;-72
2023/12/12 08:43:49;;;;;;;15.97;5.70;;;;;5.80;95645.00;;;;8268409;28;20725;-72
2023/12/12 08:47:52;;;;;;;14.90;5.40;;;;;5.90;95638.00;;;;8278938;28;20228;-72
2023/12/12 08:51:56;;;;;;;21.00;5.60;;;;;6.20;95640.00;;;;8273737;28;20206;-72
2023/12/12 08:56:00;;;;;;;15.50;5.77;;;;;6.40;95628.00;;;;8276552;28;20230;-72
2023/12/12 09:00:05;;;;;;;12.83;5.50;;;;;6.60;95629.00;;;;8277138;28;20296;-71
2023/12/12 09:04:13;;;;;;;18.70;5.55;;;;;6.80;95634.00;;;;8278130;28;20242;-72
2023/12/12 09:08:18;;;;;;;13.63;4.85;;;;;6.90;95616.00;;;;8277455;28;20257;-72
2023/12/12 09:12:22;;;;;;;12.37;5.30;;;;;7.10;95606.00;;;;8275307;28;20799;-71
2023/12/12 09:16:26;;;;;;;13.30;6.77;;;;;7.30;95605.00;;;;8277090;28;20701;-72
2023/12/12 09:20:29;;;;;;;10.43;5.47;;;;;7.50;95608.00;;;;8275484;28;20277;-73
2023/12/12 09:24:34;;;;;;;13.27;6.30;;;;;7.70;95598.00;;;;8279297;28;20229;-72
2023/12/12 09:28:37;;;;;;;10.67;5.03;;;;;8.10;95612.00;;;;8279510;28;20233;-72
2023/12/12 09:32:40;;;;;;;9.73;5.50;;;;;8.40;95617.00;;;;8276747;28;20216;-72
2023/12/12 09:36:44;;;;;;;12.63;6.95;;;;;8.70;95644.00;;;;8280054;28;20228;-70
2023/12/12 09:40:48;;;;;;;16.63;8.23;;;;;8.80;95644.00;;;;8275456;28;20289;-72
2023/12/12 09:44:59;;;;;;;17.77;8.18;;;;;8.80;95627.00;;;;8275445;28;20198;-72
2023/12/12 09:49:06;;;;;;;18.20;8.47;;;;;8.90;95629.00;;;;8274004;28;20208;-72
2023/12/12 09:53:10;;;;;;;16.37;8.53;;;;;9.10;95616.00;;;;8278887;28;20218;-71
2023/12/12 09:57:17;;;;;;;16.73;7.72;;;;;9.20;95565.00;;;;8277653;28;20313;-72
2023/12/12 10:01:20;;;;;;;14.07;7.65;;;;;9.40;95567.00;;;;8273784;28;20304;-72
2023/12/12 10:05:23;;;;;;;12.73;7.65;;;;;9.60;95563.00;;;;8276197;28;20264;-72
2023/12/12 10:09:27;;;;;;;12.75;7.28;;;;;9.90;95536.00;;;;8279355;28;20206;-71
2023/12/12 10:13:47;;;;;;;14.00;7.00;;;;;10.10;95522.00;;;;8270816;28;20209;-72
2023/12/12 10:17:55;;;;;;;15.93;7.82;;;;;10.30;95531.00;;;;8273582;28;20323;-72
2023/12/12 10:22:02;;;;;;;15.95;7.07;;;;;10.40;95518.00;;;;8275310;28;20304;-73
2023/12/12 10:26:06;;;;;;;13.75;6.53;;;;;10.50;95507.00;;;;8280140;28;20208;-72
2023/12/12 10:30:12;;;;;;;15.25;6.88;;;;;10.60;95506.00;;;;8281817;28;20737;-72
2023/12/12 10:34:19;;;;;;;9.02;5.95;;;;;10.70;95513.00;;;;8275739;28;20237;-71
2023/12/12 10:38:25;;;;;;;12.18;5.90;;;;;10.70;95515.00;;;;8280025;28;20361;-72
2023/12/12 10:42:32;;;;;;;10.07;6.25;;;;;10.60;95528.00;;;;8280121;28;20204;-71
2023/12/12 10:46:39;;;;;;;9.68;6.10;;;;;10.60;95525.00;;;;8279940;28;20194;-71
2023/12/12 10:50:48;;;;;;;16.45;6.25;;;;;10.70;95528.00;;;;8281613;28;20590;-71
2023/12/12 10:54:54;;;;;;;15.75;7.18;;;;;10.80;95534.00;;;;8280838;28;20385;-71
2023/12/12 10:58:59;;;;;;;10.40;5.03;;;;;10.80;95534.00;;;;8280781;28;20265;-71
2023/12/12 11:03:24;;;;;;;5.63;4.47;;;;;10.80;95533.00;;;;8282446;28;20241;-71
2023/12/12 11:07:27;;;;;;;10.15;5.35;;;;;10.80;95523.00;;;;8283704;28;20782;-71
2023/12/12 11:11:31;;;;;;;8.27;4.80;;;;;10.70;95519.00;;;;8275833;28;20204;-71
2023/12/12 11:15:37;;;;;;;8.98;4.15;;;;;10.70;95504.00;;;;8277883;28;20210;-72
2023/12/12 11:19:42;;;;;;;9.45;3.75;;;;;10.50;95487.00;;;;8279151;28;20263;-72
2023/12/12 11:23:54;;;;;;;5.28;3.35;;;;;10.40;95479.00;;;;8287985;28;20194;-72
2023/12/12 11:27:58;;;;;;;9.95;3.72;;;;;10.30;95483.00;;;;8279776;28;20255;-71
2023/12/12 11:32:03;;;;;;;9.23;4.10;;;;;10.30;95463.00;;;;8277138;28;20208;-72
2023/12/12 11:36:08;;;;;;;7.22;3.22;;;;;10.30;95454.00;;;;8278186;28;20214;-72
2023/12/12 11:40:13;;;;;;;15.98;4.60;;;;;10.30;95448.00;;;;8281119;28;20260;-71
2023/12/12 11:44:19;;;;;;;8.57;3.75;;;;;10.30;95454.00;;;;8277946;28;20210;-71
2023/12/12 11:48:27;;;;;;;7.22;3.92;;;;;10.30;95460.00;;;;8277670;28;20962;-72
2023/12/12 11:52:49;;;;;;;9.43;3.83;;;;;10.30;95462.00;;;;8276054;28;20202;-72
2023/12/12 11:56:57;;;;;;;6.50;3.85;;;;;10.30;95467.00;;;;8280925;28;20822;-71
2023/12/12 12:01:00;;;;;;;20.30;4.88;;;;;10.30;95469.00;;;;8274416;28;20209;-72
2023/12/12 12:05:04;;;;;;;9.43;3.80;;;;;10.30;95449.00;;;;8273038;28;20237;-71
2023/12/12 12:09:09;;;;;;;13.02;3.90;;;;;10.30;95439.00;;;;8274068;28;20266;-71
2023/12/12 12:13:12;;;;;;;10.00;4.55;;;;;10.30;95434.00;;;;8277815;28;20207;-71
2023/12/12 12:17:16;;;;;;;13.95;4.72;;;;;10.30;95408.00;;;;8269005;28;20272;-71
2023/12/12 12:21:24;;;;;;;19.73;5.20;;;;;10.30;95410.00;;;;8275110;28;20225;-72
2023/12/12 12:25:29;;;;;;;11.90;5.40;;;;;10.30;95403.00;;;;8271931;28;21240;-70
2023/12/12 12:29:32;;;;;;;9.65;4.55;;;;;10.10;95396.00;;;;8276560;28;20714;-71
2023/12/12 12:33:39;;;;;;;11.15;4.68;;;;;9.90;95392.00;;;;8277734;28;20209;-70
2023/12/12 12:37:42;;;;;;;15.27;5.03;;;;;9.90;95376.00;;;;8280163;28;20746;-71
2023/12/12 12:41:53;;;;;;;14.32;4.60;;;;;9.80;95378.00;;;;8266843;28;20204;-70
2023/12/12 12:45:58;;;;;;;14.07;5.00;;;;;9.70;95369.00;;;;8275643;28;20217;-71
2023/12/12 12:50:01;;;;;;;7.53;4.10;;;;;9.50;95349.00;;;;8278740;28;20654;-71
2023/12/12 12:54:04;;;;;;;12.02;4.53;;;;;9.50;95351.00;;;;8274117;28;20206;-70
2023/12/12 12:58:10;;;;;;;16.17;4.47;;;;;9.40;95335.00;;;;8288668;28;20234;-71
2023/12/12 13:02:14;;;;;;;10.63;5.03;;;;;9.40;95318.00;;;;8275606;28;20539;-71
2023/12/12 13:06:18;;;;;;;12.95;4.82;;;;;9.30;95318.00;;;;8270677;28;20656;-72
2023/12/12 13:10:21;;;;;;;13.68;5.13;;;;;9.30;95298.00;;;;8280264;28;20202;-72
2023/12/12 13:14:46;;;;;;;10.45;5.30;;;;;9.20;95305.00;;;;8276964;28;20267;-71
2023/12/12 13:18:49;;;;;;;12.63;5.50;;;;;9.20;95309.00;;;;8278161;28;20291;-70
2023/12/12 13:22:52;;;;;;;13.70;6.43;;;;;9.10;95301.00;;;;8277162;28;20284;-71
2023/12/12 13:26:55;;;;;;;11.43;6.43;;;;;9.10;95301.00;;;;8268124;28;20201;-70
2023/12/12 13:31:00;;;;;;;14.23;6.78;;;;;9.00;95300.00;;;;8285460;28;20210;-69
2023/12/12 13:35:05;;;;;;;15.27;6.25;;;;;8.90;95294.00;;;;8275209;28;20193;-71
2023/12/12 13:39:20;;;;;;;15.70;7.35;;;;;8.80;95284.00;;;;8284019;28;20218;-70
2023/12/12 13:43:23;;;;;;;16.73;7.18;;;;;8.70;95270.00;;;;8264351;28;20742;-69
2023/12/12 13:47:29;;;;;;;13.00;7.13;;;;;8.60;95270.00;;;;8274251;28;20202;-70
2023/12/12 13:51:33;;;;;;;18.80;7.57;;;;;8.60;95272.00;;;;8277007;28;20198;-70
2023/12/12 13:55:48;;;;;;;17.27;7.38;;;;;8.50;95266.00;;;;8276018;28;20202;-70
2023/12/12 13:59:52;;;;;;;21.17;7.40;;;;;8.40;95260.00;;;;8275398;28;20234;-70
2023/12/12 14:03:56;;;;;;;16.77;7.55;;;;;8.40;95249.00;;;;8278661;28;20225;-71
2023/12/12 14:08:00;;;;;;;15.02;7.75;;;;;8.50;95252.00;;;;8276938;28;20202;-71
2023/12/12 14:12:03;;;;;;;15.45;7.90;;;;;8.50;95270.00;;;;8285912;28;20221;-71
2023/12/12 14:16:07;;;;;;;23.27;8.43;;;;;8.50;95259.00;;;;8282973;28;20336;-71
2023/12/12 14:20:12;;;;;;;16.13;7.80;;;;;8.50;95262.00;;;;8272149;28;20230;-71
2023/12/12 14:24:16;;;;;;;21.83;8.25;;;;;8.50;95260.00;;;;8268787;28;20209;-72
2023/12/12 14:28:19;;;;;;;18.67;8.30;;;;;8.40;95229.00;;;;8279204;28;20237;-71
2023/12/12 14:32:22;;;;;;;18.07;9.13;;;;;8.40;95203.00;;;;8279751;28;20209;-72
2023/12/12 14:36:26;;;;;;;17.40;9.82;;;;;8.30;95224.00;;;;8279521;28;20887;-71
2023/12/12 14:40:29;;;;;;;27.10;10.73;;;;;8.30;95235.00;;;;8279229;28;20316;-72
2023/12/12 14:44:36;;;;;;;33.40;17.15;;;;;8.30;95237.00;;;;8275090;28;20241;-70
2023/12/12 14:48:39;;;;;;;44.53;23.83;;;;;8.20;95233.00;;;;8282475;28;20252;-71
2023/12/12 14:52:44;;;;;;;24.90;11.93;;;;;8.20;95240.00;;;;8277314;28;20854;-71
2023/12/12 14:56:47;;;;;;;23.43;12.57;;;;;8.10;95261.00;;;;8283670;28;20726;-71
2023/12/12 15:00:50;;;;;;;20.45;10.15;;;;;8.00;95238.00;;;;8275484;28;21215;-71
2023/12/12 15:04:54;;;;;;;19.88;11.07;;;;;8.00;95229.00;;;;8266345;28;20279;-71
2023/12/12 15:08:59;;;;;;;33.10;13.60;;;;;7.90;95206.00;;;;8274170;28;20254;-70
2023/12/12 15:13:02;;;;;;;28.55;13.63;;;;;7.80;95201.00;;;;8284385;28;20550;-71
2023/12/12 15:17:05;;;;;;;25.17;12.07;;;;;7.80;95212.00;;;;8287691;28;20210;-71
2023/12/12 15:21:09;;;;;;;28.80;13.77;;;;;7.70;95213.00;;;;8280470;28;20966;-71
2023/12/12 15:25:17;;;;;;;27.30;11.27;;;;;7.70;95214.00;;;;8285959;28;20670;-70
2023/12/12 15:29:33;;;;;;;26.67;10.80;;;;;7.70;95224.00;;;;8266202;28;20202;-70
2023/12/12 15:33:40;;;;;;;23.70;11.00;;;;;7.70;95220.00;;;;8272662;28;20206;-70
2023/12/12 15:37:48;;;;;;;32.53;12.00;;;;;7.70;95212.00;;;;8274136;28;20209;-69
2023/12/12 15:41:52;;;;;;;837.55;78.75;;;;;7.70;95191.00;;;;8276566;28;20230;-70
2023/12/12 15:45:55;;;;;;;25.47;11.40;;;;;7.60;95179.00;;;;8276317;28;20198;-69
2023/12/12 15:49:58;;;;;;;24.57;12.10;;;;;7.60;95175.00;;;;8265631;28;20285;-70
2023/12/12 15:54:02;;;;;;;24.63;12.13;;;;;7.50;95177.00;;;;8283463;28;20685;-73
2023/12/12 15:58:07;;;;;;;23.70;12.15;;;;;7.50;95177.00;;;;8270894;28;20233;-72
2023/12/12 16:02:11;;;;;;;22.23;11.65;;;;;7.50;95173.00;;;;8274152;28;20229;-73
2023/12/12 16:06:14;;;;;;;24.88;11.77;;;;;7.50;95168.00;;;;8274005;28;20210;-73
2023/12/12 16:10:17;;;;;;;29.37;11.67;;;;;7.50;95163.00;;;;8288157;28;20199;-72
2023/12/12 16:14:22;;;;;;;26.13;12.48;;;;;7.50;95146.00;;;;8274959;28;20553;-72
2023/12/12 16:18:25;;;;;;;26.20;11.98;;;;;7.50;95140.00;;;;8273531;28;20202;-71
2023/12/12 16:22:28;;;;;;;29.70;13.80;;;;;7.40;95138.00;;;;8266788;28;20655;-73
2023/12/12 16:26:32;;;;;;;24.50;12.70;;;;;7.40;95123.00;;;;8276720;28;20241;-73
2023/12/12 16:30:36;;;;;;;194.50;26.03;;;;;7.30;95091.00;;;;8300258;28;20675;-72
2023/12/12 16:34:39;;;;;;;34.70;14.90;;;;;7.30;95077.00;;;;8300906;28;20194;-72
2023/12/12 16:38:43;;;;;;;31.60;15.40;;;;;7.20;95054.00;;;;8300935;28;20260;-73
2023/12/12 16:42:46;;;;;;;31.93;12.93;;;;;7.20;95024.00;;;;8301119;28;20240;-73
2023/12/12 16:46:50;;;;;;;35.53;13.43;;;;;7.20;95028.00;;;;8301034;28;20193;-73
2023/12/12 16:50:55;;;;;;;39.33;13.63;;;;;7.20;95044.00;;;;8300351;28;20194;-73
2023/12/12 16:54:58;;;;;;;40.13;15.33;;;;;7.10;95049.00;;;;8300954;28;20635;-72
2023/12/12 16:59:02;;;;;;;54.77;18.50;;;;;7.00;95043.00;;;;8300200;28;20316;-73
2023/12/12 17:03:06;;;;;;;36.07;15.37;;;;;7.00;95038.00;;;;8300431;28;20257;-72
2023/12/12 17:07:10;;;;;;;37.57;15.13;;;;;7.00;95025.00;;;;8300355;28;20240;-72
2023/12/12 17:11:13;;;;;;;59.43;16.93;;;;;7.00;95032.00;;;;8299936;28;20198;-72
2023/12/12 17:15:16;;;;;;;43.33;16.90;;;;;7.00;95034.00;;;;8301074;28;20388;-73
2023/12/12 17:19:21;;;;;;;56.83;16.63;;;;;7.10;95048.00;;;;8300560;28;20308;-72
2023/12/12 17:23:25;;;;;;;43.40;17.67;;;;;7.10;95039.00;;;;8298766;28;20285;-73
2023/12/12 17:27:28;;;;;;;53.03;17.10;;;;;7.10;95052.00;;;;8299297;28;20229;-73
2023/12/12 17:31:31;;;;;;;51.87;18.43;;;;;7.20;95043.00;;;;8299732;28;20281;-72
2023/12/12 17:35:36;;;;;;;507.10;57.03;;;;;7.20;95042.00;;;;8300242;28;20288;-73
2023/12/12 17:39:39;;;;;;;104.20;20.48;;;;;7.20;95017.00;;;;8299406;28;20230;-74
2023/12/12 17:43:42;;;;;;;121.90;22.83;;;;;7.20;95015.00;;;;8298934;28;20240;-73
2023/12/12 17:47:45;;;;;;;180.60;29.30;;;;;7.20;95023.00;;;;8299758;28;20201;-74
2023/12/12 17:51:50;;;;;;;390.10;34.33;;;;;7.20;95027.00;;;;8299733;28;20281;-74
2023/12/12 17:55:53;;;;;;;429.60;35.77;;;;;7.20;95031.00;;;;8298983;28;20198;-73
2023/12/12 17:59:57;;;;;;;620.70;43.33;;;;;7.20;95045.00;;;;8299089;28;20221;-74
2023/12/12 18:04:00;;;;;;;362.27;31.17;;;;;7.20;95036.00;;;;8298984;28;20293;-74
2023/12/12 18:08:06;;;;;;;254.40;26.00;;;;;7.20;95034.00;;;;8298706;28;20527;-75
2023/12/12 18:12:09;;;;;;;387.53;33.90;;;;;7.20;95048.00;;;;8299860;28;20669;-75
2023/12/12 18:16:12;;;;;;;220.27;26.77;;;;;7.20;95029.00;;;;8297662;28;20194;-75
2023/12/12 18:20:19;;;;;;;405.90;33.80;;;;;7.10;94997.00;;;;8298107;28;20253;-74
2023/12/12 18:24:24;;;;;;;269.77;26.50;;;;;7.00;95020.00;;;;8298612;28;20205;-74
2023/12/12 18:28:27;;;;;;;729.30;50.17;;;;;7.00;95022.00;;;;8299019;28;20209;-74
2023/12/12 18:32:30;;;;;;;700.77;48.53;;;;;7.00;95027.00;;;;8298096;28;20198;-74
2023/12/12 18:36:34;;;;;;;189.67;21.87;;;;;7.00;95028.00;;;;8298016;28;20190;-74
2023/12/12 18:40:38;;;;;;;412.30;33.87;;;;;7.00;95011.00;;;;8298354;28;20635;-74
2023/12/12 18:44:42;;;;;;;499.63;38.63;;;;;6.90;95023.00;;;;8301576;28;20284;-74
2023/12/12 18:48:48;;;;;;;651.43;43.27;;;;;6.90;94994.00;;;;8303920;28;20190;-73
2023/12/12 18:52:53;;;;;;;671.50;46.20;;;;;7.00;95008.00;;;;8304957;28;20190;-72
2023/12/12 18:56:57;;;;;;;609.07;40.27;;;;;6.90;94998.00;;;;8304205;28;20234;-72
2023/12/12 19:01:00;;;;;;;396.03;31.10;;;;;7.00;95011.00;;;;8305593;28;20269;-71
2023/12/12 19:05:05;;;;;;;459.47;36.63;;;;;7.00;95027.00;;;;8305082;28;20213;-72
2023/12/12 19:09:09;;;;;;;335.70;32.00;;;;;7.00;95026.00;;;;8303628;28;20260;-71
2023/12/12 19:13:15;;;;;;;503.87;38.23;;;;;7.10;95025.00;;;;8303808;28;20190;-72
2023/12/12 19:17:21;;;;;;;452.70;33.67;;;;;7.10;95024.00;;;;8304684;28;20190;-72
2023/12/12 19:21:30;;;;;;;472.13;37.50;;;;;7.20;95003.00;;;;8286163;28;20225;-72
2023/12/12 19:25:37;;;;;;;298.57;28.50;;;;;7.20;94992.00;;;;8303536;28;20505;-71
2023/12/12 19:29:42;;;;;;;323.67;30.93;;;;;7.20;94975.00;;;;8303697;28;20200;-72
2023/12/12 19:33:45;;;;;;;510.33;36.70;;;;;7.20;94964.00;;;;8303652;28;20190;-72
2023/12/12 19:37:52;;;;;;;343.57;31.10;;;;;7.20;94961.00;;;;8303011;28;20202;-72
2023/12/12 19:41:56;;;;;;;542.17;39.40;;;;;7.20;94961.00;;;;8304130;28;20714;-72
2023/12/12 19:46:01;;;;;;;480.40;38.50;;;;;7.20;94983.00;;;;8302511;28;20245;-72
2023/12/12 19:50:05;;;;;;;1565.77;514.00;;;;;7.20;94982.00;;;;8302807;28;20202;-72
2023/12/12 19:54:08;;;;;;;747.80;133.60;;;;;7.20;94962.00;;;;8302722;28;20244;-73
2023/12/12 19:58:11;;;;;;;370.13;58.77;;;;;7.30;94982.00;;;;8302986;28;20281;-72
2023/12/12 20:02:17;;;;;;;446.87;61.83;;;;;7.20;94962.00;;;;8302559;28;20267;-72
2023/12/12 20:06:20;;;;;;;415.13;36.73;;;;;7.20;94949.00;;;;8303054;28;20197;-73
2023/12/12 20:10:28;;;;;;;615.40;43.07;;;;;7.20;94955.00;;;;8302130;28;20202;-72
2023/12/12 20:14:32;;;;;;;509.13;69.15;;;;;7.20;94951.00;;;;8302574;28;20186;-73
2023/12/12 20:18:37;;;;;;;462.90;43.83;;;;;7.30;94952.00;;;;8301918;28;20198;-73
2023/12/12 20:22:40;;;;;;;458.17;35.03;;;;;7.30;94953.00;;;;8302371;28;20210;-73